createdAt,value
2023-12-23T00:01:49.783Z,99540.22
2023-12-23T00:04:17.998Z,99547.09
2023-12-23T00:06:46.101Z,99553.19
2023-12-23T00:09:16.533Z,99547.88
2023-12-23T00:11:44.784Z,99548.69
2023-12-23T00:14:14.359Z,99549.47
2023-12-23T00:16:42.643Z,99547.66
2023-12-23T00:19:11.408Z,99551.19
2023-12-23T00:21:39.617Z,99545.94
2023-12-23T00:24:08.047Z,99558.31
2023-12-23T00:26:36.177Z,99551.19
2023-12-23T00:29:04.324Z,99556.50
2023-12-23T00:31:33.838Z,99554.63
2023-12-23T00:34:01.988Z,99561.66
2023-12-23T00:36:30.159Z,99553.44
2023-12-23T00:38:58.250Z,99563.88
2023-12-23T00:41:26.438Z,99570.84
2023-12-23T00:43:54.554Z,99560.13
2023-12-23T00:46:22.852Z,99567.25
2023-12-23T00:48:52.419Z,99568.09
2023-12-23T00:51:20.587Z,99561.84
2023-12-23T00:53:49.210Z,99562.63
2023-12-23T00:56:20.877Z,99566.06
2023-12-23T00:58:49.073Z,99558.03
2023-12-23T01:01:17.567Z,99563.19
2023-12-23T01:03:45.908Z,99556.78
2023-12-23T01:06:15.438Z,99554.81
2023-12-23T01:08:43.543Z,99559.16
2023-12-23T01:11:12.091Z,99563.44
2023-12-23T01:13:40.316Z,99558.97
2023-12-23T01:16:08.496Z,99567.81
2023-12-23T01:18:36.702Z,99559.69
2023-12-23T01:21:05.303Z,99548.94
2023-12-23T01:23:34.781Z,99552.38
2023-12-23T01:26:02.930Z,99553.25
2023-12-23T01:28:31.053Z,99550.47
2023-12-23T01:30:59.219Z,99553.81
2023-12-23T01:33:27.407Z,99563.53
2023-12-23T01:35:55.616Z,99555.44
2023-12-23T01:38:24.254Z,99559.75
2023-12-23T01:40:53.793Z,99558.75
2023-12-23T01:43:21.962Z,99567.53
2023-12-23T01:45:50.401Z,99564.00
2023-12-23T01:48:20.110Z,99570.09
2023-12-23T01:50:48.591Z,99565.63
2023-12-23T01:53:16.867Z,99568.22
2023-12-23T01:55:45.202Z,99564.59
2023-12-23T01:58:14.849Z,99561.94
2023-12-23T02:00:42.993Z,99560.06
2023-12-23T02:03:11.242Z,99566.25
2023-12-23T02:05:39.515Z,99555.59
2023-12-23T02:08:08.438Z,99564.44
2023-12-23T02:10:36.773Z,99570.72
2023-12-23T02:13:14.379Z,99572.50
2023-12-23T02:15:45.362Z,99566.16
2023-12-23T02:18:13.679Z,99559.03
2023-12-23T02:20:41.852Z,99571.34
2023-12-23T02:23:12.108Z,99566.72
2023-12-23T02:25:40.343Z,99564.84
2023-12-23T02:28:11.826Z,99557.53
2023-12-23T02:30:45.187Z,99569.06
2023-12-23T02:33:13.508Z,99577.00
2023-12-23T02:35:41.728Z,99575.97
2023-12-23T02:38:11.436Z,99576.72
2023-12-23T02:40:39.628Z,99562.38
2023-12-23T02:43:07.809Z,99572.09
2023-12-23T02:45:35.927Z,99573.81
2023-12-23T02:48:07.203Z,99570.13
2023-12-23T02:50:35.461Z,99566.56
2023-12-23T02:53:03.633Z,99579.78
2023-12-23T02:55:34.921Z,99577.13
2023-12-23T02:58:03.461Z,99577.97
2023-12-23T03:00:31.967Z,99578.84
2023-12-23T03:03:00.312Z,99577.81
2023-12-23T03:05:28.814Z,99585.72
2023-12-23T03:07:57.138Z,99581.25
2023-12-23T03:10:26.054Z,99586.41
2023-12-23T03:12:55.551Z,99588.94
2023-12-23T03:15:23.732Z,99592.38
2023-12-23T03:17:53.904Z,99587.81
2023-12-23T03:20:22.230Z,99584.03
2023-12-23T03:22:50.629Z,99590.09
2023-12-23T03:25:18.942Z,99580.22
2023-12-23T03:27:47.040Z,99580.03
2023-12-23T03:30:17.237Z,99576.16
2023-12-23T03:32:45.845Z,99583.06
2023-12-23T03:35:14.499Z,99574.91
2023-12-23T03:37:42.743Z,99574.72
2023-12-23T03:40:11.299Z,99576.34
2023-12-23T03:42:40.348Z,99579.75
2023-12-23T03:45:09.319Z,99579.47
2023-12-23T03:47:41.072Z,99577.59
2023-12-23T03:50:11.189Z,99574.81
2023-12-23T03:52:39.406Z,99570.25
2023-12-23T03:55:08.156Z,99578.22
2023-12-23T03:57:36.382Z,99571.06
2023-12-23T04:00:05.549Z,99576.31
2023-12-23T04:02:33.683Z,99566.41
2023-12-23T04:05:04.410Z,99578.78
2023-12-23T04:07:32.772Z,99567.28
2023-12-23T04:10:00.924Z,99573.56
2023-12-23T04:12:29.051Z,99576.22
2023-12-23T04:14:57.174Z,99585.94
2023-12-23T04:17:26.002Z,99578.97
2023-12-23T04:19:54.126Z,99579.94
2023-12-23T04:22:23.636Z,99566.75
2023-12-23T04:24:51.737Z,99578.25
2023-12-23T04:27:20.440Z,99579.22
2023-12-23T04:29:48.544Z,99574.69
2023-12-23T04:32:16.711Z,99571.06
2023-12-23T04:34:44.847Z,99570.13
2023-12-23T04:37:12.963Z,99574.50
2023-12-23T04:39:42.425Z,99578.13
2023-12-23T04:42:10.542Z,99577.25
2023-12-23T04:44:38.646Z,99582.50
2023-12-23T04:47:07.046Z,99583.38
2023-12-23T04:49:35.170Z,99589.47
2023-12-23T04:52:03.315Z,99571.66
2023-12-23T04:54:32.405Z,99592.13
2023-12-23T04:57:01.973Z,99580.53
2023-12-23T04:59:30.121Z,99573.38
2023-12-23T05:01:58.331Z,99583.19
2023-12-23T05:04:26.469Z,99585.00
2023-12-23T05:06:54.616Z,99596.44
2023-12-23T05:09:22.728Z,99589.09
2023-12-23T05:11:50.876Z,99585.53
2023-12-23T05:14:20.432Z,99608.59
2023-12-23T05:16:49.067Z,99612.25
2023-12-23T05:19:17.232Z,99612.44
2023-12-23T05:21:45.757Z,99621.00
2023-12-23T05:24:13.909Z,99627.72
2023-12-23T05:26:42.027Z,99619.53
2023-12-23T05:29:10.236Z,99617.91
2023-12-23T05:31:39.779Z,99591.38
2023-12-23T05:34:07.935Z,99564.38
2023-12-23T05:36:36.117Z,99560.06
2023-12-23T05:39:04.428Z,99569.78
2023-12-23T05:41:32.538Z,99570.63
2023-12-23T05:44:00.749Z,99571.56
2023-12-23T05:46:28.920Z,99575.09
2023-12-23T05:48:58.567Z,99583.09
2023-12-23T05:51:26.823Z,99581.28
2023-12-23T05:53:54.953Z,99583.88
2023-12-23T05:56:23.099Z,99582.16
2023-12-23T05:58:51.232Z,99575.88
2023-12-23T06:01:19.608Z,99577.50
2023-12-23T06:03:47.789Z,99575.47
2023-12-23T06:06:17.317Z,99584.16
2023-12-23T06:08:45.439Z,99586.66
2023-12-23T06:11:13.600Z,99579.53
2023-12-23T06:13:41.812Z,99582.97
2023-12-23T06:16:09.592Z,99577.63
2023-12-23T06:18:37.817Z,99577.63
2023-12-23T06:21:06.132Z,99585.63
2023-12-23T06:23:35.672Z,99575.91
2023-12-23T06:26:04.286Z,99588.63
2023-12-23T06:28:32.508Z,99587.91
2023-12-23T06:31:00.675Z,99582.84
2023-12-23T06:33:28.841Z,99587.38
2023-12-23T06:35:57.022Z,99588.41
2023-12-23T06:38:25.174Z,99579.78
2023-12-23T06:40:54.718Z,99567.59
2023-12-23T06:43:44.927Z,99562.25
2023-12-23T06:46:12.397Z,99558.56
2023-12-23T06:48:41.122Z,99556.75
2023-12-23T06:51:09.493Z,99555.59
2023-12-23T06:53:37.649Z,99546.41
2023-12-23T06:56:08.889Z,99540.81
2023-12-23T06:58:37.043Z,99544.22
2023-12-23T07:01:06.001Z,99539.75
2023-12-23T07:03:34.209Z,99539.81
2023-12-23T07:06:02.448Z,99550.47
2023-12-23T07:08:30.600Z,99543.28
2023-12-23T07:10:59.443Z,99542.31
2023-12-23T07:13:30.387Z,99544.91
2023-12-23T07:15:58.692Z,99548.50
2023-12-23T07:18:27.138Z,99540.34
2023-12-23T07:20:55.704Z,99544.66
2023-12-23T07:23:24.644Z,99557.09
2023-12-23T07:25:53.099Z,99537.59
2023-12-23T07:28:21.472Z,99549.97
2023-12-23T07:30:51.052Z,99549.91
2023-12-23T07:33:19.358Z,99552.25
2023-12-23T07:35:47.547Z,99566.09
2023-12-23T07:38:15.862Z,99559.66
2023-12-23T07:40:44.067Z,99551.56
2023-12-23T07:43:12.474Z,99546.25
2023-12-23T07:45:40.601Z,99553.38
2023-12-23T07:48:10.362Z,99560.44
2023-12-23T07:50:38.509Z,99558.53
2023-12-23T07:53:06.716Z,99553.13
2023-12-23T07:55:35.610Z,99565.34
2023-12-23T07:58:03.863Z,99563.47
2023-12-23T08:00:32.928Z,99559.69
2023-12-23T08:03:01.023Z,99555.88
2023-12-23T08:05:33.226Z,99551.34
2023-12-23T08:08:01.466Z,99546.03
2023-12-23T08:10:29.651Z,99547.66
2023-12-23T08:12:57.758Z,99566.16
2023-12-23T08:15:26.000Z,99559.34
2023-12-23T08:17:54.231Z,99564.06
2023-12-23T08:20:22.401Z,99551.00
2023-12-23T08:22:52.569Z,99557.41
2023-12-23T08:25:20.941Z,99552.16
2023-12-23T08:27:49.170Z,99548.66
2023-12-23T08:30:17.583Z,99549.38
2023-12-23T08:32:45.784Z,99558.13
2023-12-23T08:35:15.490Z,99550.06
2023-12-23T08:37:43.759Z,99555.28
2023-12-23T08:40:13.966Z,99549.00
2023-12-23T08:42:42.061Z,99557.59
2023-12-23T08:45:10.864Z,99550.31
2023-12-23T08:47:39.008Z,99555.38
2023-12-23T08:50:08.153Z,99559.59
2023-12-23T08:52:36.517Z,99554.88
2023-12-23T08:55:04.862Z,99551.09
2023-12-23T08:57:35.071Z,99557.91
2023-12-23T09:00:03.944Z,99564.88
2023-12-23T09:02:32.096Z,99560.41
2023-12-23T09:05:00.478Z,99568.31
2023-12-23T09:07:30.192Z,99561.16
2023-12-23T09:09:59.319Z,99567.28
2023-12-23T09:12:27.439Z,99557.47
2023-12-23T09:14:56.919Z,99562.78
2023-12-23T09:17:25.133Z,99565.38
2023-12-23T09:19:53.350Z,99570.56
2023-12-23T09:22:21.899Z,99559.72
2023-12-23T09:24:50.064Z,99565.81
2023-12-23T09:27:18.161Z,99561.34
2023-12-23T09:29:47.312Z,99565.72
2023-12-23T09:32:16.894Z,99568.28
2023-12-23T09:34:45.095Z,99580.59
2023-12-23T09:37:13.272Z,99568.28
2023-12-23T09:39:41.446Z,99581.44
2023-12-23T09:42:10.239Z,99583.22
2023-12-23T09:44:38.643Z,99592.75
2023-12-23T09:47:07.128Z,99597.03
2023-12-23T09:49:38.223Z,99585.41
2023-12-23T09:52:06.677Z,99590.66
2023-12-23T09:54:39.529Z,99581.63
2023-12-23T09:57:08.682Z,99592.06
2023-12-23T09:59:36.906Z,99593.59
2023-12-23T10:02:05.401Z,99595.06
2023-12-23T10:04:33.582Z,99598.13
2023-12-23T10:07:03.251Z,99604.94
2023-12-23T10:09:33.781Z,99602.19
2023-12-23T10:12:02.824Z,99602.19
2023-12-23T10:14:30.998Z,99593.03
2023-12-23T10:16:59.221Z,99600.69
2023-12-23T10:19:27.506Z,99606.72
2023-12-23T10:21:55.896Z,99604.72
2023-12-23T10:24:25.405Z,99604.44
2023-12-23T10:26:53.961Z,99610.56
2023-12-23T10:29:23.880Z,99611.06
2023-12-23T10:31:55.658Z,99603.66
2023-12-23T10:34:27.329Z,99602.22
2023-12-23T10:36:56.303Z,99615.31
2023-12-23T10:39:29.814Z,99600.53
2023-12-23T10:41:59.803Z,99596.84
2023-12-23T10:44:28.555Z,99599.13
2023-12-23T10:46:57.901Z,99593.38
2023-12-23T10:49:26.651Z,99600.28
2023-12-23T10:51:56.696Z,99609.06
2023-12-23T10:54:28.748Z,99600.00
2023-12-23T10:56:58.711Z,99598.06
2023-12-23T10:59:26.986Z,99602.41
2023-12-23T11:01:57.022Z,99597.53
2023-12-23T11:04:26.302Z,99600.75
2023-12-23T11:06:56.400Z,99604.50
2023-12-23T11:09:28.183Z,99606.19
2023-12-23T11:11:57.204Z,99620.44
2023-12-23T11:14:25.547Z,99609.56
2023-12-23T11:16:57.461Z,99608.50
2023-12-23T11:19:26.785Z,99615.69
2023-12-23T11:22:21.872Z,99620.72
2023-12-23T11:24:51.446Z,99627.03
2023-12-23T11:27:35.685Z,99621.88
2023-12-23T11:30:08.963Z,99621.97
2023-12-23T11:32:38.698Z,99627.22
2023-12-23T11:35:09.649Z,99635.25
2023-12-23T11:37:52.228Z,99622.84
2023-12-23T11:40:22.693Z,99628.34
2023-12-23T11:42:52.103Z,99618.44
2023-12-23T11:45:20.583Z,99617.09
2023-12-23T11:47:48.784Z,99616.72
2023-12-23T11:50:17.157Z,99620.00
2023-12-23T11:52:46.613Z,99629.66
2023-12-23T11:55:14.998Z,99625.16
2023-12-23T11:57:44.870Z,99614.34
2023-12-23T12:00:13.941Z,99612.53
2023-12-23T12:02:42.036Z,99609.09
2023-12-23T12:05:10.504Z,99620.75
2023-12-23T12:07:38.748Z,99617.22
2023-12-23T12:10:07.633Z,99615.41
2023-12-23T12:12:35.779Z,99625.16
2023-12-23T12:15:06.000Z,99618.28
2023-12-23T12:17:34.636Z,99624.66
2023-12-23T12:20:02.996Z,99621.03
2023-12-23T12:22:31.165Z,99630.81
2023-12-23T12:24:59.484Z,99631.72
2023-12-23T12:27:27.665Z,99636.47
2023-12-23T12:29:55.973Z,99631.31
2023-12-23T12:32:25.632Z,99634.00
2023-12-23T12:35:02.485Z,99634.84
2023-12-23T12:37:30.656Z,99638.50
2023-12-23T12:40:01.905Z,99637.72
2023-12-23T12:42:31.570Z,99640.41
2023-12-23T12:45:02.295Z,99638.59
2023-12-23T12:47:32.050Z,99641.06
2023-12-23T12:50:06.865Z,99651.78
2023-12-23T12:52:36.153Z,99644.59
2023-12-23T12:55:07.012Z,99642.72
2023-12-23T12:57:35.234Z,99642.63
2023-12-23T13:00:08.937Z,99642.63
2023-12-23T13:02:38.568Z,99640.91
2023-12-23T13:05:07.864Z,99648.13
2023-12-23T13:07:36.056Z,99645.41
2023-12-23T13:10:04.616Z,99643.59
2023-12-23T13:12:32.875Z,99647.00
2023-12-23T13:15:02.522Z,99650.53
2023-12-23T13:17:30.738Z,99640.81
2023-12-23T13:20:00.552Z,99656.75
2023-12-23T13:22:28.777Z,99653.13
2023-12-23T13:24:56.947Z,99658.31
2023-12-23T13:27:25.173Z,99652.66
2023-12-23T13:29:53.269Z,99664.06
2023-12-23T13:32:21.740Z,99671.13
2023-12-23T13:34:49.894Z,99669.31
2023-12-23T13:37:19.397Z,99673.59
2023-12-23T13:39:47.770Z,99679.91
2023-12-23T13:42:15.891Z,99684.50
2023-12-23T13:44:43.981Z,99683.53
2023-12-23T13:47:12.140Z,99683.84
2023-12-23T13:49:40.373Z,99684.84
2023-12-23T13:52:08.691Z,99694.69
2023-12-23T13:54:38.268Z,99696.72
2023-12-23T13:57:06.770Z,99686.97
2023-12-23T13:59:34.867Z,99701.38
2023-12-23T14:02:04.166Z,99706.81
2023-12-23T14:04:32.290Z,99705.44
2023-12-23T14:07:00.396Z,99726.38
2023-12-23T14:09:28.559Z,99724.81
2023-12-23T14:11:58.236Z,99714.97
2023-12-23T14:14:26.373Z,99720.41
2023-12-23T14:16:54.589Z,99723.94
2023-12-23T14:19:22.888Z,99731.97
2023-12-23T14:21:51.097Z,99720.41
2023-12-23T14:24:19.186Z,99729.31
2023-12-23T14:26:47.324Z,99727.56
2023-12-23T14:29:16.830Z,99739.13
2023-12-23T14:31:45.069Z,99747.06
2023-12-23T14:34:13.381Z,99740.00
2023-12-23T14:36:43.593Z,99754.31
2023-12-23T14:39:11.692Z,99751.75
2023-12-23T14:41:40.253Z,99752.59
2023-12-23T14:46:43.078Z,99765.88
2023-12-23T14:49:11.380Z,99767.88
2023-12-23T14:51:39.778Z,99775.91
2023-12-23T14:54:08.008Z,99772.38
2023-12-23T14:56:36.181Z,99784.00
2023-12-23T14:59:04.585Z,99786.59
2023-12-23T15:01:36.438Z,99783.91
2023-12-23T15:04:06.684Z,99784.78
2023-12-23T15:06:34.837Z,99794.53
2023-12-23T15:09:04.399Z,99800.63
2023-12-23T15:11:32.631Z,99795.28
2023-12-23T15:14:00.909Z,99801.59
2023-12-23T15:16:29.094Z,99806.16
2023-12-23T15:18:57.627Z,99806.34
2023-12-23T15:21:27.840Z,99814.63
2023-12-23T15:23:56.658Z,99802.31
2023-12-23T15:26:25.988Z,99812.22
2023-12-23T15:28:54.203Z,99816.81
2023-12-23T15:31:22.348Z,99822.34
2023-12-23T15:33:50.582Z,99833.19
2023-12-23T15:36:18.734Z,99816.56
2023-12-23T15:38:48.233Z,99822.00
2023-12-23T15:41:16.396Z,99824.84
2023-12-23T15:43:44.661Z,99828.53
2023-12-23T15:46:12.747Z,99838.44
2023-12-23T15:48:40.979Z,99837.69
2023-12-23T15:51:09.134Z,99842.44
2023-12-23T15:53:41.058Z,99847.88
2023-12-23T15:56:11.074Z,99847.16
2023-12-23T15:58:39.282Z,99841.03
2023-12-23T16:01:07.485Z,99849.06
2023-12-23T16:03:35.654Z,99842.84
2023-12-23T16:06:04.070Z,99850.00
2023-12-23T16:08:32.474Z,99850.78
2023-12-23T16:11:00.664Z,99845.44
2023-12-23T16:13:30.259Z,99847.16
2023-12-23T16:15:58.429Z,99837.41
2023-12-23T16:18:26.819Z,99838.19
2023-12-23T16:20:55.132Z,99852.31
2023-12-23T16:23:24.228Z,99857.75
2023-12-23T16:25:52.477Z,99861.22
2023-12-23T16:28:20.616Z,99861.28
2023-12-23T16:30:50.140Z,99861.28
2023-12-23T16:33:18.489Z,99856.13
2023-12-23T16:35:46.729Z,99850.94
2023-12-23T16:38:14.875Z,99851.03
2023-12-23T16:40:43.046Z,99860.97
2023-12-23T16:43:11.138Z,99854.66
2023-12-23T16:45:39.281Z,99854.75
2023-12-23T16:48:09.870Z,99853.00
2023-12-23T16:50:38.138Z,99841.44
2023-12-23T16:53:06.505Z,99844.22
2023-12-23T16:55:34.656Z,99848.69
2023-12-23T16:58:02.775Z,99851.44
2023-12-23T17:00:30.900Z,99850.50
2023-12-23T17:02:58.982Z,99853.19
2023-12-23T17:05:28.636Z,99856.78
2023-12-23T17:07:56.887Z,99856.78
2023-12-23T17:10:26.242Z,99862.13
2023-12-23T17:12:54.630Z,99860.25
2023-12-23T17:15:23.099Z,99860.25
2023-12-23T17:17:51.366Z,99863.78
2023-12-23T17:20:19.619Z,99858.34
2023-12-23T17:22:50.715Z,99848.47
2023-12-23T17:25:18.090Z,99851.03
2023-12-23T17:27:46.204Z,99843.81
2023-12-23T17:30:15.241Z,99848.09
2023-12-23T17:32:43.480Z,99848.19
2023-12-23T17:35:11.805Z,99847.25
2023-12-23T17:37:39.909Z,99847.34
2023-12-23T17:40:10.753Z,99849.06
2023-12-23T17:42:38.817Z,99850.78
2023-12-23T17:45:07.671Z,99868.53
2023-12-23T17:47:36.691Z,99864.03
2023-12-23T17:50:05.558Z,99876.44
2023-12-23T17:52:33.716Z,99872.78
2023-12-23T17:55:01.910Z,99873.56
2023-12-23T17:57:31.479Z,99873.28
2023-12-23T17:59:59.603Z,99888.19
2023-12-23T18:02:29.767Z,99884.41
2023-12-23T18:04:58.534Z,99883.47
2023-12-23T18:07:26.680Z,99878.88
2023-12-23T18:09:54.813Z,99878.03
2023-12-23T18:12:22.931Z,99875.34
2023-12-23T18:14:52.540Z,99875.25
2023-12-23T18:17:20.700Z,99881.47
2023-12-23T18:19:48.849Z,99880.63
2023-12-23T18:22:17.081Z,99873.53
2023-12-23T18:24:45.208Z,99876.22
2023-12-23T18:27:13.338Z,99882.34
2023-12-23T18:29:41.451Z,99882.25
2023-12-23T18:32:12.230Z,99883.19
2023-12-23T18:34:40.447Z,99880.44
2023-12-23T18:37:09.167Z,99876.91
2023-12-23T18:39:37.326Z,99880.44
2023-12-23T18:42:06.852Z,99870.59
2023-12-23T18:44:34.960Z,99878.63
2023-12-23T18:47:03.152Z,99885.69
2023-12-23T18:49:32.668Z,99888.34
2023-12-23T18:52:00.773Z,99891.91
2023-12-23T18:54:28.844Z,99881.16
2023-12-23T18:56:57.278Z,99875.72
2023-12-23T18:59:25.419Z,99867.59
2023-12-23T19:01:53.684Z,99880.09
2023-12-23T19:04:21.890Z,99877.53
2023-12-23T19:06:51.451Z,99871.31
2023-12-23T19:09:19.629Z,99886.50
2023-12-23T19:11:47.724Z,99883.00
2023-12-23T19:14:15.039Z,99884.91
2023-12-23T19:16:43.167Z,99879.56
2023-12-23T19:19:11.401Z,99884.16
2023-12-23T19:21:42.484Z,99883.38
2023-12-23T19:24:13.031Z,99880.69
2023-12-23T19:26:41.360Z,99879.84
2023-12-23T19:29:09.944Z,99884.31
2023-12-23T19:31:40.265Z,99887.84
2023-12-23T19:34:10.076Z,99894.25
2023-12-23T19:36:38.382Z,99880.97
2023-12-23T19:39:06.515Z,99892.44
2023-12-23T19:41:36.100Z,99889.75
2023-12-23T19:44:04.370Z,99888.72
2023-12-23T19:46:35.615Z,99875.25
2023-12-23T19:49:05.223Z,99871.66
2023-12-23T19:51:34.603Z,99866.28
2023-12-23T19:54:02.838Z,99869.81
2023-12-23T19:56:31.029Z,99877.00
2023-12-23T19:59:00.758Z,99872.50
2023-12-23T20:01:28.905Z,99878.72
2023-12-23T20:03:59.005Z,99875.94
2023-12-23T20:06:29.005Z,99874.75
2023-12-23T20:08:59.833Z,99868.47
2023-12-23T20:11:28.065Z,99877.34
2023-12-23T20:13:56.394Z,99877.34
2023-12-23T20:16:26.448Z,99878.97
2023-12-23T20:18:54.749Z,99875.34
2023-12-23T20:21:23.676Z,99869.03
2023-12-23T20:23:52.624Z,99867.13
2023-12-23T20:26:21.701Z,99860.94
2023-12-23T20:28:51.081Z,99859.22
2023-12-23T20:31:19.557Z,99859.22
2023-12-23T20:33:49.267Z,99862.75
2023-12-23T20:36:17.449Z,99856.53
2023-12-23T20:38:45.597Z,99855.59
2023-12-23T20:41:13.807Z,99855.50
2023-12-23T20:43:42.931Z,99854.72
2023-12-23T20:46:11.864Z,99855.69
2023-12-23T20:48:40.074Z,99853.09
2023-12-23T20:51:10.438Z,99865.69
2023-12-23T20:53:38.640Z,99858.63
2023-12-23T20:56:07.581Z,99864.91
2023-12-23T20:58:35.685Z,99855.94
2023-12-23T21:01:03.834Z,99862.06
2023-12-23T21:03:31.995Z,99854.13
2023-12-23T21:06:00.449Z,99860.25
2023-12-23T21:08:30.103Z,99857.50
2023-12-23T21:10:58.489Z,99869.13
2023-12-23T21:13:26.593Z,99869.22
2023-12-23T21:15:54.712Z,99859.56
2023-12-23T21:18:22.935Z,99864.91
2023-12-23T21:20:51.136Z,99863.13
2023-12-23T21:23:19.240Z,99862.25
2023-12-23T21:25:48.836Z,99870.19
2023-12-23T21:28:17.118Z,99863.88
2023-12-23T21:30:45.378Z,99861.22
2023-12-23T21:33:13.519Z,99862.25
2023-12-23T21:35:41.794Z,99863.19
2023-12-23T21:38:09.973Z,99856.22
2023-12-23T21:40:38.141Z,99858.00
2023-12-23T21:43:07.690Z,99859.03
2023-12-23T21:45:35.810Z,99874.41
2023-12-23T21:48:04.197Z,99864.56
2023-12-23T21:50:34.104Z,99867.16
2023-12-23T21:53:02.340Z,99856.47
2023-12-23T21:55:30.447Z,99849.41
2023-12-23T21:57:58.615Z,99845.09
2023-12-23T22:00:28.514Z,99841.66
2023-12-23T22:02:57.163Z,99853.28
2023-12-23T22:05:25.567Z,99856.81
2023-12-23T22:07:53.827Z,99848.91
2023-12-23T22:10:22.043Z,99839.22
2023-12-23T22:12:50.417Z,99841.13
2023-12-23T22:15:18.687Z,99841.13
2023-12-23T22:17:48.302Z,99843.78
2023-12-23T22:20:16.691Z,99841.97
2023-12-23T22:22:44.853Z,99836.72
2023-12-23T22:25:13.423Z,99837.59
2023-12-23T22:27:41.554Z,99840.16
2023-12-23T22:30:10.516Z,99836.63
2023-12-23T22:32:38.787Z,99841.03
2023-12-23T22:35:09.484Z,99849.91
2023-12-23T22:37:38.011Z,99841.13
2023-12-23T22:40:06.983Z,99833.28
2023-12-23T22:42:35.105Z,99830.88
2023-12-23T22:45:03.249Z,99838.19
2023-12-23T22:47:31.746Z,99832.25
2023-12-23T22:49:59.951Z,99838.72
2023-12-23T22:52:29.450Z,99838.00
2023-12-23T22:54:57.529Z,99840.94
2023-12-23T22:57:25.653Z,99836.56
2023-12-23T22:59:54.320Z,99833.03
2023-12-23T23:02:22.837Z,99825.97
2023-12-23T23:04:51.173Z,99818.03
2023-12-23T23:07:19.518Z,99823.53
2023-12-23T23:09:48.987Z,99821.81
2023-12-23T23:12:17.145Z,99821.81
2023-12-23T23:14:45.235Z,99827.13
2023-12-23T23:17:13.465Z,99811.03
2023-12-23T23:19:43.866Z,99812.94
2023-12-23T23:22:12.105Z,99812.34
2023-12-23T23:24:40.214Z,99808.19
2023-12-23T23:27:09.739Z,99810.06
2023-12-23T23:29:39.443Z,99810.06
2023-12-23T23:32:09.064Z,99805.69
2023-12-23T23:34:37.202Z,99795.09
2023-12-23T23:37:05.890Z,99797.84
2023-12-23T23:39:36.647Z,99798.72
2023-12-23T23:42:05.916Z,99787.34
2023-12-23T23:44:35.535Z,99785.63
2023-12-23T23:47:03.851Z,99788.44
2023-12-23T23:49:32.417Z,99773.38
2023-12-23T23:52:00.596Z,99776.81
2023-12-23T23:54:28.764Z,99775.09
2023-12-23T23:56:56.912Z,99766.31
2023-12-23T23:59:25.100Z,99764.00
